sensor_id;sensor_type;location;lat;lon;timestamp;pressure;altitude;pressure_sealevel;temperature;humidity
33265;BME280;31404;53.974;-1.086;2023-05-14T00:00:38;102401.92;;;8.10;100.00
33265;BME280;31404;53.974;-1.086;2023-05-14T00:05:35;102397.67;;;8.25;100.00
33265;BME280;31404;53.974;-1.086;2023-05-14T00:10:37;102401.76;;;7.48;100.00
33265;BME280;31404;53.974;-1.086;2023-05-14T00:15:35;102398.28;;;8.43;100.00
33265;BME280;31404;53.974;-1.086;2023-05-14T00:20:35;102388.41;;;9.47;100.00
33265;BME280;31404;53.974;-1.086;2023-05-14T00:25:36;102374.23;;;9.49;100.00
33265;BME280;31404;53.974;-1.086;2023-05-14T00:30:35;102363.49;;;8.83;100.00
33265;BME280;31404;53.974;-1.086;2023-05-14T00:35:36;102355.79;;;8.98;100.00
33265;BME280;31404;53.974;-1.086;2023-05-14T00:40:35;102349.11;;;9.18;100.00
33265;BME280;31404;53.974;-1.086;2023-05-14T00:45:35;102348.61;;;9.11;100.00
33265;BME280;31404;53.974;-1.086;2023-05-14T00:50:35;102346.54;;;9.27;100.00
33265;BME280;31404;53.974;-1.086;2023-05-14T00:55:35;102334.59;;;9.80;100.00
33265;BME280;31404;53.974;-1.086;2023-05-14T01:00:35;102331.15;;;9.35;100.00
33265;BME280;31404;53.974;-1.086;2023-05-14T01:15:36;102312.92;;;8.58;100.00
33265;BME280;31404;53.974;-1.086;2023-05-14T01:20:36;102303.73;;;9.33;100.00
33265;BME280;31404;53.974;-1.086;2023-05-14T01:25:36;102301.24;;;8.53;100.00
33265;BME280;31404;53.974;-1.086;2023-05-14T01:30:37;102296.03;;;8.43;100.00
33265;BME280;31404;53.974;-1.086;2023-05-14T01:35:36;102292.17;;;7.75;100.00
33265;BME280;31404;53.974;-1.086;2023-05-14T01:40:35;102285.11;;;8.38;100.00
33265;BME280;31404;53.974;-1.086;2023-05-14T01:45:35;102277.40;;;9.91;100.00
33265;BME280;31404;53.974;-1.086;2023-05-14T01:50:35;102277.56;;;9.86;100.00
33265;BME280;31404;53.974;-1.086;2023-05-14T01:55:35;102265.00;;;10.82;95.31
33265;BME280;31404;53.974;-1.086;2023-05-14T02:00:36;102260.60;;;10.46;97.02
33265;BME280;31404;53.974;-1.086;2023-05-14T02:05:34;102253.11;;;9.88;99.15
33265;BME280;31404;53.974;-1.086;2023-05-14T02:10:34;102249.19;;;9.11;100.00
33265;BME280;31404;53.974;-1.086;2023-05-14T02:15:35;102233.19;;;8.07;100.00
33265;BME280;31404;53.974;-1.086;2023-05-14T02:20:35;102230.27;;;9.83;100.00
33265;BME280;31404;53.974;-1.086;2023-05-14T02:25:35;102230.77;;;9.14;100.00
33265;BME280;31404;53.974;-1.086;2023-05-14T02:30:35;102227.70;;;9.46;100.00
33265;BME280;31404;53.974;-1.086;2023-05-14T02:35:35;102230.57;;;9.84;99.67
33265;BME280;31404;53.974;-1.086;2023-05-14T02:40:36;102225.07;;;9.61;100.00
33265;BME280;31404;53.974;-1.086;2023-05-14T02:45:36;102226.12;;;9.23;100.00
33265;BME280;31404;53.974;-1.086;2023-05-14T02:50:36;102224.00;;;9.32;100.00
33265;BME280;31404;53.974;-1.086;2023-05-14T02:55:35;102220.84;;;9.14;100.00
33265;BME280;31404;53.974;-1.086;2023-05-14T03:00:35;102209.07;;;9.39;100.00
33265;BME280;31404;53.974;-1.086;2023-05-14T03:05:35;102207.91;;;9.49;100.00
33265;BME280;31404;53.974;-1.086;2023-05-14T03:10:35;102200.66;;;9.59;100.00
33265;BME280;31404;53.974;-1.086;2023-05-14T03:15:35;102196.06;;;8.67;100.00
33265;BME280;31404;53.974;-1.086;2023-05-14T03:25:36;102186.43;;;8.60;100.00
33265;BME280;31404;53.974;-1.086;2023-05-14T03:30:35;102185.46;;;8.76;100.00
33265;BME280;31404;53.974;-1.086;2023-05-14T03:35:35;102183.38;;;8.84;100.00
33265;BME280;31404;53.974;-1.086;2023-05-14T03:40:36;102178.27;;;9.06;100.00
33265;BME280;31404;53.974;-1.086;2023-05-14T03:45:35;102169.59;;;9.96;100.00
33265;BME280;31404;53.974;-1.086;2023-05-14T03:50:36;102166.45;;;9.03;100.00
33265;BME280;31404;53.974;-1.086;2023-05-14T03:55:36;102161.75;;;7.79;100.00
33265;BME280;31404;53.974;-1.086;2023-05-14T04:00:35;102157.50;;;8.97;100.00
33265;BME280;31404;53.974;-1.086;2023-05-14T04:05:36;102151.44;;;8.18;100.00
33265;BME280;31404;53.974;-1.086;2023-05-14T04:10:36;102144.85;;;8.14;100.00
33265;BME280;31404;53.974;-1.086;2023-05-14T04:15:35;102147.46;;;8.04;100.00
33265;BME280;31404;53.974;-1.086;2023-05-14T04:20:36;102146.37;;;7.48;100.00
33265;BME280;31404;53.974;-1.086;2023-05-14T04:25:34;102140.97;;;8.20;100.00
33265;BME280;31404;53.974;-1.086;2023-05-14T04:30:36;102142.60;;;8.31;100.00
33265;BME280;31404;53.974;-1.086;2023-05-14T04:35:36;102146.57;;;9.04;100.00
33265;BME280;31404;53.974;-1.086;2023-05-14T04:40:36;102145.74;;;9.10;100.00
33265;BME280;31404;53.974;-1.086;2023-05-14T04:45:35;102144.31;;;8.48;100.00
33265;BME280;31404;53.974;-1.086;2023-05-14T04:50:35;102143.84;;;8.81;100.00
33265;BME280;31404;53.974;-1.086;2023-05-14T04:55:36;102139.52;;;8.90;100.00
33265;BME280;31404;53.974;-1.086;2023-05-14T05:00:35;102137.21;;;9.44;100.00
33265;BME280;31404;53.974;-1.086;2023-05-14T05:05:34;102135.26;;;9.57;100.00
33265;BME280;31404;53.974;-1.086;2023-05-14T05:10:35;102139.19;;;9.96;100.00
33265;BME280;31404;53.974;-1.086;2023-05-14T05:15:36;102138.97;;;9.28;100.00
33265;BME280;31404;53.974;-1.086;2023-05-14T05:20:36;102136.87;;;9.76;100.00
33265;BME280;31404;53.974;-1.086;2023-05-14T05:25:41;102140.00;;;8.95;100.00
33265;BME280;31404;53.974;-1.086;2023-05-14T05:30:36;102130.37;;;10.74;97.53
33265;BME280;31404;53.974;-1.086;2023-05-14T05:35:40;102135.18;;;8.83;100.00
33265;BME280;31404;53.974;-1.086;2023-05-14T05:40:36;102124.40;;;10.08;99.94
33265;BME280;31404;53.974;-1.086;2023-05-14T05:45:36;102131.23;;;8.37;100.00
33265;BME280;31404;53.974;-1.086;2023-05-14T05:50:35;102121.92;;;10.12;98.21
33265;BME280;31404;53.974;-1.086;2023-05-14T05:55:36;102119.84;;;9.27;100.00
33265;BME280;31404;53.974;-1.086;2023-05-14T06:00:36;102113.67;;;8.69;100.00
33265;BME280;31404;53.974;-1.086;2023-05-14T06:05:35;102109.42;;;8.74;100.00
33265;BME280;31404;53.974;-1.086;2023-05-14T06:10:36;102115.38;;;8.67;100.00
33265;BME280;31404;53.974;-1.086;2023-05-14T06:15:35;102104.56;;;8.68;100.00
33265;BME280;31404;53.974;-1.086;2023-05-14T06:20:36;102101.52;;;8.61;100.00
33265;BME280;31404;53.974;-1.086;2023-05-14T06:25:34;102096.52;;;8.79;100.00
33265;BME280;31404;53.974;-1.086;2023-05-14T06:30:35;102099.24;;;8.23;100.00
33265;BME280;31404;53.974;-1.086;2023-05-14T06:35:36;102088.55;;;8.97;100.00
33265;BME280;31404;53.974;-1.086;2023-05-14T06:40:35;102088.57;;;10.02;100.00
33265;BME280;31404;53.974;-1.086;2023-05-14T06:45:35;102094.87;;;9.14;100.00
33265;BME280;31404;53.974;-1.086;2023-05-14T06:50:36;102095.28;;;9.88;100.00
33265;BME280;31404;53.974;-1.086;2023-05-14T06:55:35;102087.65;;;9.59;100.00
33265;BME280;31404;53.974;-1.086;2023-05-14T07:00:35;102083.16;;;9.83;99.79
33265;BME280;31404;53.974;-1.086;2023-05-14T07:05:35;102074.94;;;9.78;100.00
33265;BME280;31404;53.974;-1.086;2023-05-14T07:10:37;102072.81;;;9.49;100.00
33265;BME280;31404;53.974;-1.086;2023-05-14T07:15:35;102062.66;;;9.63;100.00
33265;BME280;31404;53.974;-1.086;2023-05-14T07:20:35;102058.36;;;8.66;100.00
33265;BME280;31404;53.974;-1.086;2023-05-14T07:25:35;102062.75;;;8.60;100.00
33265;BME280;31404;53.974;-1.086;2023-05-14T07:30:35;102060.97;;;8.93;100.00
33265;BME280;31404;53.974;-1.086;2023-05-14T07:35:36;102054.93;;;10.19;98.61
33265;BME280;31404;53.974;-1.086;2023-05-14T07:40:35;102057.44;;;8.74;100.00
33265;BME280;31404;53.974;-1.086;2023-05-14T07:45:36;102053.15;;;8.81;100.00
33265;BME280;31404;53.974;-1.086;2023-05-14T07:50:36;102047.69;;;10.76;95.72
33265;BME280;31404;53.974;-1.086;2023-05-14T07:55:36;102048.91;;;9.45;100.00
33265;BME280;31404;53.974;-1.086;2023-05-14T08:00:35;102049.07;;;9.58;100.00
33265;BME280;31404;53.974;-1.086;2023-05-14T08:05:35;102039.34;;;9.93;96.80
33265;BME280;31404;53.974;-1.086;2023-05-14T08:10:35;102044.76;;;9.72;100.00
33265;BME280;31404;53.974;-1.086;2023-05-14T08:15:34;102041.95;;;9.70;99.07
33265;BME280;31404;53.974;-1.086;2023-05-14T08:20:35;102037.02;;;10.26;96.17
33265;BME280;31404;53.974;-1.086;2023-05-14T08:25:36;102035.86;;;8.18;100.00
33265;BME280;31404;53.974;-1.086;2023-05-14T08:30:35;102026.64;;;8.36;100.00
33265;BME280;31404;53.974;-1.086;2023-05-14T08:35:35;102015.09;;;9.26;100.00
33265;BME280;31404;53.974;-1.086;2023-05-14T08:40:36;102009.82;;;10.83;97.30
33265;BME280;31404;53.974;-1.086;2023-05-14T08:45:37;102002.21;;;10.08;99.45
33265;BME280;31404;53.974;-1.086;2023-05-14T08:50:36;101997.27;;;10.62;100.00
33265;BME280;31404;53.974;-1.086;2023-05-14T08:55:36;101996.81;;;10.18;100.00
33265;BME280;31404;53.974;-1.086;2023-05-14T09:00:35;101992.64;;;9.58;100.00
33265;BME280;31404;53.974;-1.086;2023-05-14T09:05:34;101981.47;;;11.18;96.80
33265;BME280;31404;53.974;-1.086;2023-05-14T09:10:35;101975.34;;;12.27;91.79
33265;BME280;31404;53.974;-1.086;2023-05-14T09:15:35;101965.56;;;11.24;94.45
33265;BME280;31404;53.974;-1.086;2023-05-14T09:20:34;101965.00;;;11.06;99.16
33265;BME280;31404;53.974;-1.086;2023-05-14T09:25:35;101959.72;;;11.58;94.81
33265;BME280;31404;53.974;-1.086;2023-05-14T09:30:36;101952.44;;;12.01;93.40
33265;BME280;31404;53.974;-1.086;2023-05-14T09:35:37;101947.37;;;10.46;100.00
33265;BME280;31404;53.974;-1.086;2023-05-14T09:40:35;101946.69;;;11.56;95.86
33265;BME280;31404;53.974;-1.086;2023-05-14T09:45:34;101937.90;;;11.74;93.33
33265;BME280;31404;53.974;-1.086;2023-05-14T09:55:35;101928.30;;;11.19;96.11
33265;BME280;31404;53.974;-1.086;2023-05-14T10:00:35;101923.80;;;11.86;92.10
33265;BME280;31404;53.974;-1.086;2023-05-14T10:05:35;101917.92;;;13.16;88.08
33265;BME280;31404;53.974;-1.086;2023-05-14T10:10:36;101910.15;;;13.13;86.95
33265;BME280;31404;53.974;-1.086;2023-05-14T10:15:38;101905.21;;;12.70;90.07
33265;BME280;31404;53.974;-1.086;2023-05-14T10:20:37;101911.06;;;14.93;82.82
33265;BME280;31404;53.974;-1.086;2023-05-14T10:25:36;101899.33;;;14.21;86.09
33265;BME280;31404;53.974;-1.086;2023-05-14T10:30:35;101898.28;;;13.77;86.60
33265;BME280;31404;53.974;-1.086;2023-05-14T10:40:34;101890.06;;;13.83;84.17
33265;BME280;31404;53.974;-1.086;2023-05-14T10:45:35;101884.73;;;14.16;82.65
33265;BME280;31404;53.974;-1.086;2023-05-14T10:50:34;101882.57;;;14.21;83.44
33265;BME280;31404;53.974;-1.086;2023-05-14T10:55:34;101880.99;;;15.85;77.58
33265;BME280;31404;53.974;-1.086;2023-05-14T11:00:34;101883.43;;;13.81;83.41
33265;BME280;31404;53.974;-1.086;2023-05-14T11:05:35;101880.15;;;14.81;80.25
33265;BME280;31404;53.974;-1.086;2023-05-14T11:10:34;101868.53;;;16.04;75.82
33265;BME280;31404;53.974;-1.086;2023-05-14T11:15:35;101870.23;;;15.31;77.94
33265;BME280;31404;53.974;-1.086;2023-05-14T11:20:35;101855.99;;;14.23;82.04
33265;BME280;31404;53.974;-1.086;2023-05-14T11:25:35;101847.96;;;15.24;78.62
33265;BME280;31404;53.974;-1.086;2023-05-14T11:30:35;101840.12;;;14.52;80.20
33265;BME280;31404;53.974;-1.086;2023-05-14T11:35:35;101841.36;;;13.36;87.95
33265;BME280;31404;53.974;-1.086;2023-05-14T11:40:36;101831.36;;;15.78;77.87
33265;BME280;31404;53.974;-1.086;2023-05-14T11:45:36;101824.03;;;16.43;75.09
33265;BME280;31404;53.974;-1.086;2023-05-14T11:50:35;101821.31;;;16.83;72.18
33265;BME280;31404;53.974;-1.086;2023-05-14T11:55:35;101814.40;;;16.49;74.49
33265;BME280;31404;53.974;-1.086;2023-05-14T12:00:37;101817.84;;;15.36;76.77
33265;BME280;31404;53.974;-1.086;2023-05-14T12:05:37;101807.84;;;16.13;76.30
33265;BME280;31404;53.974;-1.086;2023-05-14T12:15:34;101796.69;;;17.25;70.91
33265;BME280;31404;53.974;-1.086;2023-05-14T12:20:35;101786.08;;;17.33;68.96
33265;BME280;31404;53.974;-1.086;2023-05-14T12:25:37;101782.73;;;18.32;69.03
33265;BME280;31404;53.974;-1.086;2023-05-14T12:30:37;101774.29;;;17.77;68.40
33265;BME280;31404;53.974;-1.086;2023-05-14T12:35:35;101764.40;;;17.59;70.82
33265;BME280;31404;53.974;-1.086;2023-05-14T12:40:38;101758.73;;;17.32;70.10
33265;BME280;31404;53.974;-1.086;2023-05-14T12:45:34;101750.02;;;18.71;67.28
33265;BME280;31404;53.974;-1.086;2023-05-14T12:50:35;101750.10;;;17.30;70.03
33265;BME280;31404;53.974;-1.086;2023-05-14T12:55:35;101745.23;;;18.40;68.47
33265;BME280;31404;53.974;-1.086;2023-05-14T13:00:36;101736.42;;;17.99;69.82
33265;BME280;31404;53.974;-1.086;2023-05-14T13:05:36;101724.19;;;18.93;67.28
33265;BME280;31404;53.974;-1.086;2023-05-14T13:10:36;101715.17;;;19.58;66.03
33265;BME280;31404;53.974;-1.086;2023-05-14T13:15:36;101716.46;;;19.24;66.50
33265;BME280;31404;53.974;-1.086;2023-05-14T13:20:35;101710.91;;;19.47;64.71
33265;BME280;31404;53.974;-1.086;2023-05-14T13:25:34;101706.99;;;20.07;64.16
33265;BME280;31404;53.974;-1.086;2023-05-14T13:30:36;101708.08;;;18.71;66.93
33265;BME280;31404;53.974;-1.086;2023-05-14T13:35:35;101696.68;;;18.07;71.74
33265;BME280;31404;53.974;-1.086;2023-05-14T13:40:35;101684.41;;;18.87;69.48
33265;BME280;31404;53.974;-1.086;2023-05-14T13:45:34;101684.64;;;17.80;70.30
33265;BME280;31404;53.974;-1.086;2023-05-14T13:50:34;101681.46;;;17.64;70.23
33265;BME280;31404;53.974;-1.086;2023-05-14T13:55:35;101672.77;;;18.87;66.25
33265;BME280;31404;53.974;-1.086;2023-05-14T14:00:36;101659.49;;;19.41;66.05
33265;BME280;31404;53.974;-1.086;2023-05-14T14:05:35;101663.38;;;18.61;66.54
33265;BME280;31404;53.974;-1.086;2023-05-14T14:10:35;101661.35;;;17.65;67.52
33265;BME280;31404;53.974;-1.086;2023-05-14T14:15:35;101655.32;;;18.11;64.12
33265;BME280;31404;53.974;-1.086;2023-05-14T14:20:35;101653.04;;;16.93;69.15
33265;BME280;31404;53.974;-1.086;2023-05-14T14:25:35;101652.60;;;16.50;68.14
33265;BME280;31404;53.974;-1.086;2023-05-14T14:30:34;101638.27;;;18.61;62.72
33265;BME280;31404;53.974;-1.086;2023-05-14T14:40:35;101624.07;;;17.09;64.71
33265;BME280;31404;53.974;-1.086;2023-05-14T14:45:36;101626.77;;;14.84;62.80
33265;BME280;31404;53.974;-1.086;2023-05-14T14:50:34;101625.57;;;15.81;60.89
33265;BME280;31404;53.974;-1.086;2023-05-14T14:55:34;101625.37;;;14.98;68.51
33265;BME280;31404;53.974;-1.086;2023-05-14T15:00:35;101621.61;;;16.19;67.98
33265;BME280;31404;53.974;-1.086;2023-05-14T15:05:39;101631.35;;;13.87;72.89
33265;BME280;31404;53.974;-1.086;2023-05-14T15:10:35;101616.18;;;15.41;70.16
33265;BME280;31404;53.974;-1.086;2023-05-14T15:20:36;101609.61;;;14.70;70.30
33265;BME280;31404;53.974;-1.086;2023-05-14T15:25:36;101612.78;;;15.01;69.71
33265;BME280;31404;53.974;-1.086;2023-05-14T15:30:36;101605.28;;;15.23;64.75
33265;BME280;31404;53.974;-1.086;2023-05-14T15:35:35;101603.58;;;15.61;60.57
33265;BME280;31404;53.974;-1.086;2023-05-14T15:40:34;101609.87;;;15.17;62.68
33265;BME280;31404;53.974;-1.086;2023-05-14T15:45:34;101604.35;;;15.62;59.50
33265;BME280;31404;53.974;-1.086;2023-05-14T15:50:36;101603.03;;;15.47;58.43
33265;BME280;31404;53.974;-1.086;2023-05-14T15:55:35;101594.11;;;16.71;57.27
33265;BME280;31404;53.974;-1.086;2023-05-14T16:00:34;101599.16;;;15.66;56.72
33265;BME280;31404;53.974;-1.086;2023-05-14T16:05:34;101597.09;;;14.43;60.32
33265;BME280;31404;53.974;-1.086;2023-05-14T16:10:34;101596.18;;;15.21;62.36
33265;BME280;31404;53.974;-1.086;2023-05-14T16:15:34;101594.79;;;13.96;66.79
33265;BME280;31404;53.974;-1.086;2023-05-14T16:20:35;101597.07;;;14.55;65.45
33265;BME280;31404;53.974;-1.086;2023-05-14T16:25:35;101605.89;;;13.63;68.84
33265;BME280;31404;53.974;-1.086;2023-05-14T16:30:35;101605.95;;;13.91;71.79
33265;BME280;31404;53.974;-1.086;2023-05-14T16:35:34;101612.02;;;13.00;75.79
33265;BME280;31404;53.974;-1.086;2023-05-14T16:40:34;101612.90;;;13.49;73.18
33265;BME280;31404;53.974;-1.086;2023-05-14T16:45:34;101612.80;;;13.78;72.22
33265;BME280;31404;53.974;-1.086;2023-05-14T16:50:36;101611.06;;;12.97;76.79
33265;BME280;31404;53.974;-1.086;2023-05-14T16:55:37;101608.43;;;14.20;72.76
33265;BME280;31404;53.974;-1.086;2023-05-14T17:00:35;101609.66;;;13.99;73.34
33265;BME280;31404;53.974;-1.086;2023-05-14T17:05:36;101608.13;;;12.95;82.00
33265;BME280;31404;53.974;-1.086;2023-05-14T17:10:38;101614.48;;;14.35;78.97
33265;BME280;31404;53.974;-1.086;2023-05-14T17:15:35;101611.47;;;13.89;78.43
33265;BME280;31404;53.974;-1.086;2023-05-14T17:20:35;101613.93;;;12.81;77.24
33265;BME280;31404;53.974;-1.086;2023-05-14T17:25:34;101614.12;;;13.39;75.76
33265;BME280;31404;53.974;-1.086;2023-05-14T17:30:34;101619.60;;;11.68;80.38
33265;BME280;31404;53.974;-1.086;2023-05-14T17:35:35;101605.12;;;13.26;76.07
33265;BME280;31404;53.974;-1.086;2023-05-14T17:40:35;101605.27;;;13.22;75.15
33265;BME280;31404;53.974;-1.086;2023-05-14T17:45:35;101609.36;;;13.28;76.50
33265;BME280;31404;53.974;-1.086;2023-05-14T17:50:34;101613.87;;;12.02;81.55
33265;BME280;31404;53.974;-1.086;2023-05-14T17:55:34;101616.89;;;13.43;77.03
33265;BME280;31404;53.974;-1.086;2023-05-14T18:00:35;101627.79;;;11.21;85.91
33265;BME280;31404;53.974;-1.086;2023-05-14T18:05:35;101630.90;;;11.64;85.01
33265;BME280;31404;53.974;-1.086;2023-05-14T18:10:34;101633.98;;;10.87;88.58
33265;BME280;31404;53.974;-1.086;2023-05-14T18:15:36;101631.08;;;11.56;85.26
33265;BME280;31404;53.974;-1.086;2023-05-14T18:20:34;101638.29;;;12.18;85.10
33265;BME280;31404;53.974;-1.086;2023-05-14T18:25:36;101642.89;;;12.19;84.21
33265;BME280;31404;53.974;-1.086;2023-05-14T18:30:36;101655.40;;;10.48;95.14
33265;BME280;31404;53.974;-1.086;2023-05-14T18:35:35;101660.35;;;10.07;97.48
33265;BME280;31404;53.974;-1.086;2023-05-14T18:40:35;101655.36;;;11.14;93.58
33265;BME280;31404;53.974;-1.086;2023-05-14T18:45:34;101657.78;;;10.88;97.54
33265;BME280;31404;53.974;-1.086;2023-05-14T18:50:34;101657.98;;;11.28;95.17
33265;BME280;31404;53.974;-1.086;2023-05-14T18:55:35;101669.05;;;10.07;100.00
33265;BME280;31404;53.974;-1.086;2023-05-14T19:00:33;101665.86;;;10.71;100.00
33265;BME280;31404;53.974;-1.086;2023-05-14T19:05:34;101664.20;;;10.14;100.00
33265;BME280;31404;53.974;-1.086;2023-05-14T19:10:34;101662.38;;;11.05;96.19
33265;BME280;31404;53.974;-1.086;2023-05-14T19:15:34;101665.81;;;10.80;95.23
33265;BME280;31404;53.974;-1.086;2023-05-14T19:20:35;101669.01;;;10.38;97.24
33265;BME280;31404;53.974;-1.086;2023-05-14T19:25:35;101667.53;;;10.68;94.53
33265;BME280;31404;53.974;-1.086;2023-05-14T19:30:35;101673.10;;;10.58;93.69
33265;BME280;31404;53.974;-1.086;2023-05-14T19:35:34;101676.96;;;11.16;91.36
33265;BME280;31404;53.974;-1.086;2023-05-14T19:40:34;101686.56;;;9.95;98.44
33265;BME280;31404;53.974;-1.086;2023-05-14T19:45:35;101686.38;;;10.46;100.00
33265;BME280;31404;53.974;-1.086;2023-05-14T19:50:35;101677.85;;;12.17;91.67
33265;BME280;31404;53.974;-1.086;2023-05-14T19:55:35;101679.11;;;13.05;83.78
33265;BME280;31404;53.974;-1.086;2023-05-14T20:00:36;101680.20;;;12.77;85.68
33265;BME280;31404;53.974;-1.086;2023-05-14T20:05:35;101683.05;;;12.21;87.17
33265;BME280;31404;53.974;-1.086;2023-05-14T20:10:35;101688.16;;;11.38;90.47
33265;BME280;31404;53.974;-1.086;2023-05-14T20:20:35;101695.37;;;12.53;84.71
33265;BME280;31404;53.974;-1.086;2023-05-14T20:25:34;101693.49;;;13.16;83.80
33265;BME280;31404;53.974;-1.086;2023-05-14T20:30:34;101691.83;;;12.86;84.34
33265;BME280;31404;53.974;-1.086;2023-05-14T20:35:34;101695.33;;;12.38;87.93
33265;BME280;31404;53.974;-1.086;2023-05-14T20:40:34;101698.84;;;13.15;85.05
33265;BME280;31404;53.974;-1.086;2023-05-14T20:45:34;101697.88;;;12.58;86.46
33265;BME280;31404;53.974;-1.086;2023-05-14T20:50:34;101699.82;;;13.80;82.49
33265;BME280;31404;53.974;-1.086;2023-05-14T20:55:34;101704.03;;;11.70;90.79
33265;BME280;31404;53.974;-1.086;2023-05-14T21:00:34;101708.76;;;9.52;100.00
33265;BME280;31404;53.974;-1.086;2023-05-14T21:05:35;101712.66;;;9.86;100.00
33265;BME280;31404;53.974;-1.086;2023-05-14T21:10:35;101716.61;;;9.50;100.00
33265;BME280;31404;53.974;-1.086;2023-05-14T21:15:35;101718.33;;;9.66;100.00
33265;BME280;31404;53.974;-1.086;2023-05-14T21:20:34;101720.81;;;10.83;95.14
33265;BME280;31404;53.974;-1.086;2023-05-14T21:25:34;101722.93;;;10.24;92.09
33265;BME280;31404;53.974;-1.086;2023-05-14T21:30:34;101721.36;;;11.06;86.71
33265;BME280;31404;53.974;-1.086;2023-05-14T21:35:35;101714.37;;;10.52;87.49
33265;BME280;31404;53.974;-1.086;2023-05-14T21:40:35;101700.55;;;9.09;91.53
33265;BME280;31404;53.974;-1.086;2023-05-14T21:45:35;101708.08;;;9.39;89.29
33265;BME280;31404;53.974;-1.086;2023-05-14T21:50:35;101722.06;;;10.87;83.04
33265;BME280;31404;53.974;-1.086;2023-05-14T21:55:35;101737.05;;;9.00;92.15
33265;BME280;31404;53.974;-1.086;2023-05-14T22:00:35;101746.42;;;7.64;100.00
33265;BME280;31404;53.974;-1.086;2023-05-14T22:05:34;101739.87;;;8.13;95.62
33265;BME280;31404;53.974;-1.086;2023-05-14T22:10:35;101741.23;;;8.78;90.76
33265;BME280;31404;53.974;-1.086;2023-05-14T22:15:38;101745.22;;;9.11;91.23
33265;BME280;31404;53.974;-1.086;2023-05-14T22:20:34;101742.21;;;10.81;80.49
33265;BME280;31404;53.974;-1.086;2023-05-14T22:25:35;101731.46;;;8.71;87.77
33265;BME280;31404;53.974;-1.086;2023-05-14T22:30:35;101728.68;;;10.30;81.39
33265;BME280;31404;53.974;-1.086;2023-05-14T22:35:35;101725.82;;;8.49;88.36
33265;BME280;31404;53.974;-1.086;2023-05-14T22:40:37;101731.39;;;10.04;82.90
33265;BME280;31404;53.974;-1.086;2023-05-14T22:45:35;101734.97;;;9.26;85.77
33265;BME280;31404;53.974;-1.086;2023-05-14T22:50:35;101734.91;;;10.61;81.65
33265;BME280;31404;53.974;-1.086;2023-05-14T22:55:34;101729.56;;;11.39;76.65
33265;BME280;31404;53.974;-1.086;2023-05-14T23:00:35;101741.92;;;9.84;82.92
33265;BME280;31404;53.974;-1.086;2023-05-14T23:05:35;101745.51;;;8.71;89.43
33265;BME280;31404;53.974;-1.086;2023-05-14T23:10:36;101746.18;;;9.72;85.60
33265;BME280;31404;53.974;-1.086;2023-05-14T23:15:34;101746.40;;;8.99;88.87
33265;BME280;31404;53.974;-1.086;2023-05-14T23:20:36;101749.59;;;9.43;83.96
33265;BME280;31404;53.974;-1.086;2023-05-14T23:25:36;101751.95;;;8.80;89.04
33265;BME280;31404;53.974;-1.086;2023-05-14T23:30:35;101747.85;;;11.07;78.40
33265;BME280;31404;53.974;-1.086;2023-05-14T23:35:37;101755.75;;;7.99;85.97
33265;BME280;31404;53.974;-1.086;2023-05-14T23:40:36;101769.63;;;7.07;92.56
33265;BME280;31404;53.974;-1.086;2023-05-14T23:45:36;101761.79;;;9.75;80.11
33265;BME280;31404;53.974;-1.086;2023-05-14T23:50:35;101771.80;;;8.36;86.93
33265;BME280;31404;53.974;-1.086;2023-05-14T23:55:36;101766.56;;;9.84;81.33
